Time;durP1;ratioP1;P1;durP2;ratioP2;P2;SDS_P1;SDS_P2;PMS_P1;PMS_P2;Temp;Humidity;BMP_temperature;BMP_pressure;BME280_temperature;BME280_humidity;BME280_pressure;Samples;Min_cycle;Max_cycle;Signal;HPM_P1;HPM_P2
2022/06/20 00:01:10;;;;;;;12.10;4.32;;;22.00;64.80;;;;;;5009441;28;20161;-69
2022/06/20 00:03:39;;;;;;;10.10;4.60;;;21.90;65.30;;;;;;5008982;28;20026;-69
2022/06/20 00:06:05;;;;;;;9.35;4.80;;;21.90;65.30;;;;;;5009218;28;20033;-69
2022/06/20 00:08:31;;;;;;;11.35;4.70;;;22.00;65.20;;;;;;5008545;28;20459;-68
2022/06/20 00:10:57;;;;;;;12.32;4.90;;;22.00;64.80;;;;;;5009321;28;20026;-69
2022/06/20 00:13:31;;;;;;;13.82;5.30;;;21.90;65.00;;;;;;5009123;28;20511;-69
2022/06/20 00:15:57;;;;;;;15.02;4.45;;;21.80;65.20;;;;;;4991515;28;20037;-69
2022/06/20 00:18:23;;;;;;;10.88;3.95;;;21.80;64.90;;;;;;4990656;28;20053;-69
2022/06/20 00:20:49;;;;;;;11.45;4.57;;;21.80;64.70;;;;;;5009134;28;20022;-69
2022/06/20 00:23:15;;;;;;;13.90;4.90;;;21.70;64.40;;;;;;5009006;28;20540;-69
2022/06/20 00:25:41;;;;;;;12.50;5.07;;;21.70;64.00;;;;;;4991401;28;20036;-69
2022/06/20 00:28:09;;;;;;;10.55;4.47;;;21.70;64.00;;;;;;5008073;28;20118;-69
2022/06/20 00:30:36;;;;;;;9.68;4.13;;;21.50;63.70;;;;;;5009142;28;20030;-70
2022/06/20 00:33:03;;;;;;;9.57;4.70;;;21.30;63.50;;;;;;5008996;28;20083;-68
2022/06/20 00:35:28;;;;;;;11.52;4.47;;;21.20;63.70;;;;;;4991054;28;20027;-68
2022/06/20 00:37:57;;;;;;;11.02;4.40;;;21.10;63.90;;;;;;5007781;28;20030;-69
2022/06/20 00:40:40;;;;;;;14.77;5.00;;;21.20;63.80;;;;;;5008914;28;20026;-69
2022/06/20 00:43:11;;;;;;;13.05;4.60;;;21.20;63.60;;;;;;4991644;28;20026;-70
2022/06/20 00:45:43;;;;;;;11.68;4.70;;;21.20;63.10;;;;;;5011413;28;20026;-69
2022/06/20 00:48:16;;;;;;;8.93;4.10;;;21.10;63.20;;;;;;4994175;28;20029;-70
2022/06/20 00:50:45;;;;;;;13.43;5.47;;;21.10;63.10;;;;;;5012501;28;20029;-69
2022/06/20 00:53:29;;;;;;;8.90;4.25;;;21.10;62.50;;;;;;5012262;28;20021;-69
2022/06/20 00:56:50;;;;;;;13.88;5.30;;;20.90;62.80;;;;;;5012138;28;20083;-69
2022/06/20 00:59:20;;;;;;;10.15;4.78;;;20.70;63.40;;;;;;5012060;28;20212;-70
2022/06/20 01:01:46;;;;;;;9.32;4.45;;;20.80;63.40;;;;;;5011919;28;20022;-69
2022/06/20 01:04:19;;;;;;;9.80;4.63;;;20.90;63.10;;;;;;5011781;28;20026;-69
2022/06/20 01:06:54;;;;;;;8.88;4.35;;;21.00;62.50;;;;;;5011746;28;20033;-70
2022/06/20 01:09:24;;;;;;;13.68;4.53;;;21.10;62.70;;;;;;5011070;28;20097;-69
2022/06/20 01:11:52;;;;;;;12.80;4.60;;;;;;;;;;5011973;28;20071;-69
2022/06/20 01:14:24;;;;;;;16.42;5.22;;;20.90;62.90;;;;;;5011418;28;20034;-69
2022/06/20 01:16:54;;;;;;;12.98;4.70;;;20.60;63.60;;;;;;5011906;28;20026;-69
2022/06/20 01:20:00;;;;;;;7.93;4.45;;;20.40;64.40;;;;;;5011273;28;20435;-69
2022/06/20 01:22:52;;;;;;;9.43;4.72;;;20.50;64.30;;;;;;5011927;28;20042;-69
2022/06/20 01:25:18;;;;;;;;;;;20.50;64.20;;;;;;5012133;28;20030;-69
2022/06/20 01:27:47;;;;;;;10.48;4.38;;;20.50;64.20;;;;;;5010910;28;19909;-69
2022/06/20 01:30:13;;;;;;;9.90;4.47;;;20.60;64.00;;;;;;5011544;28;20029;-70
2022/06/20 01:32:40;;;;;;;9.32;4.63;;;20.40;64.50;;;;;;5012103;28;20499;-69
2022/06/20 01:35:09;;;;;;;13.25;4.65;;;20.20;65.20;;;;;;5011898;28;20018;-69
2022/06/20 01:37:39;;;;;;;15.98;5.22;;;20.10;65.70;;;;;;5011393;28;20036;-69
2022/06/20 01:40:09;;;;;;;18.20;5.95;;;20.20;65.70;;;;;;5011811;28;20060;-70
2022/06/20 01:42:35;;;;;;;12.10;5.28;;;20.20;65.80;;;;;;5011826;28;20060;-70
2022/06/20 01:45:05;;;;;;;15.45;4.53;;;20.10;66.00;;;;;;5011719;28;20026;-70
2022/06/20 01:47:32;;;;;;;9.55;4.75;;;20.20;65.80;;;;;;5010297;28;20037;-70
2022/06/20 01:50:06;;;;;;;21.15;4.65;;;20.20;65.90;;;;;;5011154;28;20027;-69
2022/06/20 01:52:41;;;;;;;10.63;5.07;;;20.20;65.80;;;;;;5011371;28;20026;-69
2022/06/20 01:55:12;;;;;;;10.68;4.45;;;20.20;66.20;;;;;;5009879;28;20096;-70
2022/06/20 01:57:42;;;;;;;9.00;5.00;;;20.30;65.90;;;;;;5010474;28;20026;-69
2022/06/20 02:00:18;;;;;;;11.82;5.03;;;20.40;66.00;;;;;;5011193;28;20030;-69
2022/06/20 02:02:58;;;;;;;8.80;4.50;;;20.40;65.70;;;;;;5012034;28;20030;-68
2022/06/20 02:05:29;;;;;;;7.55;4.50;;;20.40;65.60;;;;;;5011385;28;20430;-69
2022/06/20 02:08:00;;;;;;;;;;;20.40;65.60;;;;;;5011069;28;20548;-69
2022/06/20 02:10:31;;;;;;;10.30;4.68;;;20.40;65.80;;;;;;5011307;28;19999;-69
2022/06/20 02:13:01;;;;;;;10.00;5.35;;;20.40;65.90;;;;;;5011052;28;20063;-69
2022/06/20 02:15:28;;;;;;;12.23;4.78;;;20.40;66.00;;;;;;5010780;28;20136;-70
2022/06/20 02:17:55;;;;;;;16.20;5.05;;;20.40;65.90;;;;;;5010083;28;20022;-69
2022/06/20 02:20:26;;;;;;;14.65;4.95;;;20.40;65.90;;;;;;5010956;28;20476;-69
2022/06/20 02:22:53;;;;;;;12.13;4.78;;;20.40;65.90;;;;;;5011162;28;20407;-68
2022/06/20 02:25:24;;;;;;;10.95;5.07;;;20.40;66.10;;;;;;5010596;28;20030;-68
2022/06/20 02:27:53;;;;;;;13.63;4.30;;;20.40;66.10;;;;;;5009916;28;20072;-69
2022/06/20 02:30:19;;;;;;;11.07;5.03;;;20.50;66.00;;;;;;5010634;28;20391;-69
2022/06/20 02:32:51;;;;;;;12.80;5.43;;;20.40;65.80;;;;;;5010576;28;20109;-68
2022/06/20 02:35:19;;;;;;;15.25;5.20;;;20.40;65.90;;;;;;5010906;28;20037;-69
2022/06/20 02:37:46;;;;;;;10.60;4.97;;;20.40;66.20;;;;;;5009943;28;20030;-69
2022/06/20 02:40:15;;;;;;;11.32;4.50;;;20.50;66.50;;;;;;4993092;28;20026;-69
2022/06/20 02:42:52;;;;;;;11.68;4.80;;;20.50;66.20;;;;;;5010435;28;20026;-70
2022/06/20 02:45:20;;;;;;;11.07;4.53;;;20.50;66.10;;;;;;5010137;28;20022;-70
2022/06/20 02:47:49;;;;;;;11.85;5.15;;;20.50;66.00;;;;;;5009566;28;20127;-71
2022/06/20 02:50:23;;;;;;;8.10;4.22;;;20.60;65.70;;;;;;5010103;28;20098;-70
2022/06/20 02:52:55;;;;;;;8.02;4.40;;;20.70;65.50;;;;;;5010102;28;20392;-70
2022/06/20 02:55:22;;;;;;;10.00;4.57;;;20.70;65.60;;;;;;5010010;28;20026;-70
2022/06/20 02:57:52;;;;;;;12.95;4.63;;;20.90;64.90;;;;;;5009454;28;20307;-70
2022/06/20 03:00:24;;;;;;;13.70;4.95;;;20.70;64.80;;;;;;4992548;28;20528;-68
2022/06/20 03:02:56;;;;;;;8.95;4.70;;;20.70;65.20;;;;;;4992435;28;20026;-69
2022/06/20 03:05:22;;;;;;;;;;;20.70;65.10;;;;;;5010495;28;20025;-69
2022/06/20 03:07:49;;;;;;;23.95;11.52;;;20.70;65.10;;;;;;5009072;28;20298;-69
2022/06/20 03:10:21;;;;;;;28.20;12.73;;;20.50;65.70;;;;;;4992491;28;20117;-68
2022/06/20 03:12:47;;;;;;;10.57;4.82;;;20.40;66.40;;;;;;5009916;28;20026;-70
2022/06/20 03:15:14;;;;;;;22.52;9.05;;;20.20;67.10;;;;;;5008920;28;20038;-68
2022/06/20 03:17:41;;;;;;;17.25;5.70;;;20.20;67.20;;;;;;5009005;28;20030;-69
2022/06/20 03:20:13;;;;;;;14.57;7.50;;;20.10;67.50;;;;;;5009714;28;20034;-69
2022/06/20 03:23:02;;;;;;;10.48;5.55;;;20.00;67.70;;;;;;5009843;28;20025;-68
2022/06/20 03:25:28;;;;;;;20.10;9.43;;;20.00;67.60;;;;;;5009636;28;20102;-69
2022/06/20 03:27:54;;;;;;;14.13;6.05;;;20.00;67.70;;;;;;5008911;28;20033;-68
2022/06/20 03:30:23;;;;;;;9.35;5.38;;;20.10;67.60;;;;;;5009790;28;20026;-69
2022/06/20 03:32:48;;;;;;;11.25;5.30;;;20.20;67.20;;;;;;5009737;28;20021;-69
2022/06/20 03:35:14;;;;;;;23.45;9.38;;;20.20;67.30;;;;;;5009526;28;20519;-70
2022/06/20 03:37:40;;;;;;;12.10;5.97;;;20.50;66.90;;;;;;5008776;28;20030;-68
2022/06/20 03:40:06;;;;;;;12.68;5.55;;;20.60;66.40;;;;;;5009437;28;20112;-67
2022/06/20 03:42:32;;;;;;;8.43;4.47;;;20.90;65.80;;;;;;5009361;28;20053;-69
2022/06/20 03:45:00;;;;;;;17.70;5.85;;;21.20;64.70;;;;;;5009298;28;20443;-68
2022/06/20 03:47:29;;;;;;;10.75;4.57;;;21.50;63.40;;;;;;5008601;28;20026;-69
2022/06/20 03:50:33;;;;;;;12.98;5.28;;;22.10;62.10;;;;;;5009600;28;20390;-69
2022/06/20 03:53:08;;;;;;;10.65;4.90;;;22.70;60.00;;;;;;5012018;28;20034;-67
2022/06/20 03:56:05;;;;;;;9.13;4.40;;;22.80;59.20;;;;;;5009382;28;20574;-69
2022/06/20 03:58:57;;;;;;;10.77;5.10;;;23.00;58.60;;;;;;5009003;28;20380;-69
2022/06/20 04:01:29;;;;;;;12.73;5.20;;;23.10;58.00;;;;;;5011204;28;20102;-69
2022/06/20 04:04:18;;;;;;;14.52;5.15;;;23.40;57.10;;;;;;4991410;28;20026;-69
2022/06/20 04:07:06;;;;;;;9.32;4.47;;;23.80;55.70;;;;;;5008899;28;20022;-70
2022/06/20 04:12:28;;;;;;;14.35;5.15;;;24.60;53.00;;;;;;5009165;28;20029;-71
2022/06/20 04:15:01;;;;;;;11.05;5.43;;;24.60;53.30;;;;;;4991332;28;20064;-70
2022/06/20 04:20:27;;;;;;;8.85;4.47;;;24.90;52.80;;;;;;5008984;28;20041;-70
2022/06/20 04:22:55;;;;;;;8.23;4.38;;;25.70;50.80;;;;;;5008882;28;20022;-69
2022/06/20 04:25:38;;;;;;;15.18;5.20;;;26.10;49.30;;;;;;5008819;28;20036;-69
2022/06/20 04:28:25;;;;;;;17.92;5.25;;;25.70;49.90;;;;;;5007964;28;20030;-69
2022/06/20 04:31:08;;;;;;;11.43;5.13;;;25.50;50.40;;;;;;5009058;28;20046;-69
2022/06/20 04:33:45;;;;;;;10.05;4.70;;;24.50;52.50;;;;;;5008734;28;20029;-71
2022/06/20 04:36:16;;;;;;;12.30;5.20;;;24.70;52.90;;;;;;5010572;28;20033;-71
2022/06/20 04:39:02;;;;;;;14.07;4.80;;;25.40;50.70;;;;;;5009432;28;20065;-69
2022/06/20 04:41:47;;;;;;;13.98;4.85;;;25.20;51.00;;;;;;5008915;28;20058;-69
2022/06/20 04:44:29;;;;;;;11.10;5.18;;;25.50;50.50;;;;;;5008635;28;20410;-69
2022/06/20 04:47:10;;;;;;;16.55;5.07;;;25.60;49.90;;;;;;5007085;28;20574;-71
2022/06/20 04:49:37;;;;;;;12.18;4.85;;;25.90;49.00;;;;;;5008604;28;20026;-69
2022/06/20 04:52:03;;;;;;;9.70;4.55;;;26.00;48.60;;;;;;5008634;28;20030;-67
2022/06/20 04:54:29;;;;;;;14.88;5.15;;;26.10;48.60;;;;;;5008412;28;20032;-68
2022/06/20 04:56:56;;;;;;;9.65;4.88;;;26.50;48.80;;;;;;4990562;28;20398;-69
2022/06/20 04:59:28;;;;;;;9.68;5.70;;;26.30;49.90;;;;;;5007407;28;20099;-70
2022/06/20 05:01:57;;;;;;;14.18;5.90;;;24.60;54.50;;;;;;5008368;28;20058;-69
2022/06/20 05:04:31;;;;;;;10.25;5.43;;;23.80;59.40;;;;;;5008373;28;20022;-70
2022/06/20 05:06:59;;;;;;;13.70;5.88;;;22.70;63.40;;;;;;5008262;28;20041;-68
2022/06/20 05:09:31;;;;;;;13.05;5.93;;;21.50;64.40;;;;;;5006709;28;20503;-69
2022/06/20 05:12:12;;;;;;;16.85;6.30;;;21.00;65.70;;;;;;5008254;28;20034;-69
2022/06/20 05:15:03;;;;;;;12.25;6.60;;;20.90;65.10;;;;;;5024114;22;20046;-74
2022/06/20 05:17:31;;;;;;;12.70;6.27;;;21.00;65.00;;;;;;5037908;28;20415;-74
2022/06/20 05:20:07;;;;;;;21.65;6.00;;;22.00;62.30;;;;;;5027510;28;20084;-72
2022/06/20 05:22:42;;;;;;;12.68;5.50;;;23.50;58.20;;;;;;5009795;28;20032;-71
2022/06/20 05:25:14;;;;;;;15.52;5.00;;;24.90;52.80;;;;;;5027738;28;20029;-76
2022/06/20 05:27:54;;;;;;;14.77;5.18;;;25.90;49.70;;;;;;5026909;28;20513;-75
2022/06/20 05:30:25;;;;;;;13.70;5.40;;;26.20;48.80;;;;;;5013357;28;20033;-76
2022/06/20 05:33:15;;;;;;;15.88;5.75;;;26.50;47.50;;;;;;5013178;28;20029;-73
2022/06/20 05:35:50;;;;;;;13.05;5.03;;;;;;;;;;5021607;28;20041;-75
2022/06/20 05:38:16;;;;;;;16.58;5.18;;;;;;;;;;5030377;28;20026;-74
2022/06/20 05:40:44;;;;;;;9.30;4.65;;;;;;;;;;5013200;28;20026;-75
2022/06/20 05:43:20;;;;;;;9.27;4.90;;;;;;;;;;5030780;28;20494;-74
2022/06/20 05:46:10;;;;;;;8.50;4.10;;;28.50;43.40;;;;;;5030901;28;20049;-75
2022/06/20 05:48:53;;;;;;;10.48;5.10;;;29.80;41.20;;;;;;5030134;28;20030;-74
2022/06/20 05:51:24;;;;;;;13.07;5.45;;;29.50;41.00;;;;;;5030531;28;20044;-74
2022/06/20 05:53:58;;;;;;;12.55;4.60;;;29.00;41.90;;;;;;5030426;28;20033;-70
2022/06/20 05:56:37;;;;;;;11.35;4.57;;;28.60;43.40;;;;;;5031020;28;20032;-70
2022/06/20 05:59:05;;;;;;;11.93;5.15;;;28.30;43.80;;;;;;5029810;28;20106;-72
2022/06/20 06:01:34;;;;;;;9.40;5.13;;;27.60;44.70;;;;;;5030853;28;20129;-69
2022/06/20 06:04:23;;;;;;;117.13;95.55;;;26.40;47.70;;;;;;5030565;28;20022;-70
2022/06/20 06:06:56;;;;;;;40.90;24.42;;;26.30;48.60;;;;;;5030705;28;20539;-68
2022/06/20 06:09:26;;;;;;;12.50;6.28;;;26.40;48.40;;;;;;5029778;28;20037;-70
2022/06/20 06:11:54;;;;;;;49.00;26.48;;;27.20;46.50;;;;;;5028969;28;20100;-71
2022/06/20 06:14:39;;;;;;;47.33;26.77;;;27.90;45.20;;;;;;5030273;28;20029;-68
2022/06/20 06:17:16;;;;;;;29.00;16.13;;;28.90;43.20;;;;;;5029609;28;20440;-68
2022/06/20 06:19:53;;;;;;;87.03;44.03;;;29.60;41.80;;;;;;5030289;28;20075;-71
2022/06/20 06:22:22;;;;;;;34.72;19.75;;;29.20;42.20;;;;;;5030086;28;20109;-70
2022/06/20 06:24:55;;;;;;;41.10;20.50;;;27.90;44.80;;;;;;5030239;28;20058;-69
2022/06/20 06:27:26;;;;;;;20.73;10.15;;;27.50;45.30;;;;;;5029201;28;20078;-68
2022/06/20 06:30:00;;;;;;;132.55;77.00;;;28.00;44.00;;;;;;5030361;28;20018;-70
2022/06/20 06:32:54;;;;;;;33.92;16.30;;;28.40;44.20;;;;;;5031075;28;20387;-70
2022/06/20 06:35:42;;;;;;;15.50;6.63;;;27.70;43.70;;;;;;4998376;28;20100;-70
2022/06/20 06:38:22;;;;;;;17.05;6.80;;;28.10;43.00;;;;;;5030018;28;20025;-70
2022/06/20 06:40:50;;;;;;;13.40;6.20;;;28.00;42.40;;;;;;5012584;28;20025;-71
2022/06/20 06:43:26;;;;;;;34.45;15.18;;;27.50;43.70;;;;;;5030642;28;20051;-70
2022/06/20 06:45:56;;;;;;;16.60;7.78;;;27.30;43.80;;;;;;5031028;28;20025;-69
2022/06/20 06:48:35;;;;;;;12.38;5.43;;;26.90;44.40;;;;;;5034453;28;20482;-71
2022/06/20 06:51:09;;;;;;;15.27;8.13;;;26.00;46.10;;;;;;5034068;28;20037;-71
2022/06/20 06:53:42;;;;;;;13.93;5.75;;;26.40;45.90;;;;;;5032209;28;20163;-70
2022/06/20 06:56:22;;;;;;;16.38;5.88;;;27.30;44.30;;;;;;5031139;28;20021;-72
2022/06/20 06:58:55;;;;;;;14.00;5.33;;;27.80;42.90;;;;;;5028322;28;20028;-71
2022/06/20 07:01:36;;;;;;;12.80;4.70;;;27.50;43.30;;;;;;5030764;27;20032;-71
2022/06/20 07:04:27;;;;;;;16.05;5.93;;;26.30;44.70;;;;;;5029405;28;20021;-71
2022/06/20 07:06:59;;;;;;;11.18;4.85;;;;;;;;;;5029332;28;20025;-71
2022/06/20 07:09:25;;;;;;;;;;;;;;;;;;5010054;28;20025;-71
2022/06/20 07:12:07;;;;;;;9.80;5.65;;;22.30;55.60;;;;;;5029908;28;19962;-72
2022/06/20 07:14:41;;;;;;;9.60;5.85;;;21.60;58.30;;;;;;5011876;28;20119;-71
2022/06/20 07:17:28;;;;;;;8.50;5.53;;;21.70;58.60;;;;;;5028663;28;20030;-70
2022/06/20 07:19:54;;;;;;;10.68;5.65;;;22.10;57.90;;;;;;5029104;28;20028;-72
2022/06/20 07:22:23;;;;;;;10.30;5.63;;;23.00;55.40;;;;;;5011803;28;20029;-72
2022/06/20 07:24:49;;;;;;;10.65;6.03;;;23.50;53.00;;;;;;5029392;28;20033;-72
2022/06/20 07:27:36;;;;;;;9.57;5.35;;;24.50;50.70;;;;;;5028667;28;20025;-72
2022/06/20 07:30:14;;;;;;;10.02;5.63;;;24.80;49.80;;;;;;5029307;28;20025;-72
2022/06/20 07:32:51;;;;;;;8.80;5.63;;;24.60;49.40;;;;;;5029301;28;20029;-72
2022/06/20 07:35:45;;;;;;;13.88;5.45;;;25.60;48.20;;;;;;5028967;28;20438;-72
2022/06/20 07:38:16;;;;;;;14.95;5.70;;;26.30;45.90;;;;;;5030109;28;20041;-72
2022/06/20 07:41:15;;;;;;;10.90;5.40;;;26.80;44.30;;;;;;5029032;28;20458;-73
2022/06/20 07:44:05;;;;;;;16.95;6.28;;;26.20;45.10;;;;;;5029350;28;20402;-73
2022/06/20 07:46:42;;;;;;;9.73;5.38;;;25.10;48.20;;;;;;5029103;28;20029;-73
2022/06/20 07:49:35;;;;;;;11.63;5.10;;;25.50;47.60;;;;;;5010973;28;20025;-73
2022/06/20 07:52:10;;;;;;;13.18;5.10;;;26.40;45.90;;;;;;5026481;28;20046;-72
2022/06/20 07:54:45;;;;;;;9.43;5.10;;;27.00;43.80;;;;;;5028603;28;20486;-72
2022/06/20 07:57:21;;;;;;;13.73;5.53;;;27.30;43.90;;;;;;5028520;28;20041;-72
2022/06/20 07:59:51;;;;;;;14.88;6.03;;;26.90;44.10;;;;;;5029208;28;20055;-72
2022/06/20 08:02:38;;;;;;;13.20;5.65;;;25.90;45.60;;;;;;5010995;28;20032;-71
2022/06/20 08:05:06;;;;;;;8.80;5.00;;;25.00;48.30;;;;;;5029276;28;20029;-72
2022/06/20 08:07:41;;;;;;;17.67;5.63;;;25.20;48.00;;;;;;5010542;28;20026;-72
2022/06/20 08:10:27;;;;;;;11.25;4.90;;;25.20;48.20;;;;;;5028979;28;20082;-72
2022/06/20 08:12:54;;;;;;;8.73;5.63;;;25.20;48.60;;;;;;5028968;28;20390;-73
2022/06/20 08:15:36;;;;;;;10.00;4.68;;;25.10;48.50;;;;;;5010893;28;20121;-72
2022/06/20 08:18:02;;;;;;;10.38;5.63;;;25.00;49.30;;;;;;5028085;28;20044;-72
2022/06/20 08:20:33;;;;;;;9.88;5.22;;;25.40;48.00;;;;;;5028640;28;20401;-71
2022/06/20 08:23:10;;;;;;;10.18;5.38;;;25.90;47.30;;;;;;5028739;28;20371;-71
2022/06/20 08:25:44;;;;;;;15.13;5.65;;;26.30;46.10;;;;;;5010606;28;20033;-72
2022/06/20 08:28:18;;;;;;;8.32;4.60;;;26.80;45.20;;;;;;5027802;28;20026;-72
2022/06/20 08:31:00;;;;;;;7.43;4.60;;;27.40;44.00;;;;;;5028512;28;20021;-71
2022/06/20 08:33:43;;;;;;;10.38;5.00;;;27.90;42.40;;;;;;5028610;28;20025;-72
2022/06/20 08:36:28;;;;;;;11.07;5.18;;;28.20;41.80;;;;;;5028300;28;20026;-72
2022/06/20 08:39:03;;;;;;;10.90;5.07;;;28.50;41.70;;;;;;5027664;28;20022;-72
2022/06/20 08:42:00;;;;;;;10.05;5.20;;;28.70;39.90;;;;;;5010648;28;20032;-72
2022/06/20 08:44:34;;;;;;;8.00;4.85;;;28.40;41.00;;;;;;5028219;28;20046;-71
2022/06/20 08:47:27;;;;;;;7.90;4.80;;;28.40;40.60;;;;;;5027597;28;20387;-71
2022/06/20 08:50:31;;;;;;;8.45;4.80;;;28.50;41.40;;;;;;5010468;28;20025;-72
2022/06/20 08:53:11;;;;;;;14.27;4.93;;;29.20;39.50;;;;;;5010355;28;20026;-72
2022/06/20 08:56:01;;;;;;;15.27;5.03;;;29.90;38.60;;;;;;5009938;28;20483;-71
2022/06/20 08:58:51;;;;;;;9.05;4.68;;;30.20;37.60;;;;;;5027244;28;20483;-71
2022/06/20 09:01:47;;;;;;;8.73;4.47;;;30.10;38.20;;;;;;5010310;28;20059;-71
2022/06/20 09:04:31;;;;;;;10.88;4.68;;;29.70;38.30;;;;;;5028882;28;20033;-71
2022/06/20 09:07:20;;;;;;;13.52;5.07;;;29.50;38.50;;;;;;5031347;28;20040;-72
2022/06/20 09:10:12;;;;;;;12.38;5.07;;;29.80;37.70;;;;;;5031230;28;20028;-72
2022/06/20 09:13:10;;;;;;;9.82;5.30;;;29.90;38.40;;;;;;5031131;28;20037;-72
2022/06/20 09:15:44;;;;;;;10.18;5.15;;;29.00;39.20;;;;;;5031027;28;20317;-72
2022/06/20 09:18:12;;;;;;;9.27;4.85;;;28.70;40.60;;;;;;5030442;28;20053;-72
2022/06/20 09:20:42;;;;;;;8.00;4.63;;;29.90;38.50;;;;;;5013488;28;20490;-72
2022/06/20 09:23:29;;;;;;;7.60;4.47;;;30.70;36.60;;;;;;5013397;28;20061;-73
2022/06/20 09:26:24;;;;;;;6.93;4.20;;;31.30;35.90;;;;;;5030932;28;20030;-72
2022/06/20 09:28:58;;;;;;;11.73;4.53;;;31.20;36.20;;;;;;5033095;28;20085;-71
2022/06/20 09:31:30;;;;;;;12.77;4.93;;;31.40;35.90;;;;;;5030901;28;20036;-72
2022/06/20 09:34:10;;;;;;;9.15;4.80;;;30.70;37.10;;;;;;5030606;28;20026;-72
2022/06/20 09:36:58;;;;;;;7.50;4.35;;;30.10;38.20;;;;;;5030910;28;20048;-72
2022/06/20 09:39:29;;;;;;;9.95;5.43;;;29.60;38.90;;;;;;5030562;28;20051;-72
2022/06/20 09:42:03;;;;;;;7.70;4.82;;;29.20;39.20;;;;;;5030862;28;20067;-73
2022/06/20 09:44:39;;;;;;;11.52;5.18;;;28.90;39.90;;;;;;5030545;28;20036;-72
2022/06/20 09:47:18;;;;;;;9.13;5.00;;;28.50;41.00;;;;;;5030119;28;20025;-71
2022/06/20 09:50:14;;;;;;;10.13;6.07;;;28.40;41.90;;;;;;5030808;28;20027;-72
2022/06/20 09:52:57;;;;;;;10.82;5.82;;;28.10;42.30;;;;;;5030567;28;20025;-72
2022/06/20 09:55:41;;;;;;;12.00;5.47;;;27.90;42.90;;;;;;5030362;28;20025;-71
2022/06/20 09:58:50;;;;;;;11.02;5.63;;;27.50;43.70;;;;;;5029771;28;20101;-70
2022/06/20 10:01:44;;;;;;;13.13;5.75;;;26.70;45.50;;;;;;5051272;28;20080;-72
2022/06/20 10:04:33;;;;;;;12.38;5.50;;;26.30;46.90;;;;;;5051125;28;20037;-72
2022/06/20 10:07:07;;;;;;;9.10;5.50;;;26.40;46.80;;;;;;5032973;28;20041;-70
2022/06/20 10:09:42;;;;;;;10.65;5.60;;;26.00;47.70;;;;;;5030658;28;20047;-71
2022/06/20 10:12:19;;;;;;;8.45;4.72;;;26.00;48.00;;;;;;5030210;28;20064;-72
2022/06/20 10:15:10;;;;;;;9.80;5.60;;;26.30;48.00;;;;;;5012257;28;20021;-71
2022/06/20 10:18:16;;;;;;;11.63;5.17;;;26.20;47.30;;;;;;5029073;28;20394;-72
2022/06/20 10:20:52;;;;;;;7.45;4.70;;;26.30;47.90;;;;;;5051009;28;20040;-72
2022/06/20 10:23:24;;;;;;;11.10;5.18;;;26.30;47.90;;;;;;5014558;28;20570;-72
2022/06/20 10:26:21;;;;;;;15.13;5.38;;;26.30;47.20;;;;;;5030158;28;20479;-72
2022/06/20 10:28:51;;;;;;;12.55;7.22;;;26.30;47.90;;;;;;5028131;28;20442;-72
2022/06/20 10:31:17;;;;;;;10.45;6.15;;;;;;;;;;5030487;28;20021;-71
2022/06/20 10:34:24;;;;;;;14.45;6.97;;;25.50;50.10;;;;;;5030130;28;20026;-71
2022/06/20 10:37:15;;;;;;;13.10;7.28;;;;;;;;;;5029898;28;20034;-72
2022/06/20 10:40:00;;;;;;;10.85;7.10;;;;;;;;;;5012421;28;20066;-73
2022/06/20 10:42:42;;;;;;;11.13;6.82;;;;;;;;;;5029835;28;20061;-73
2022/06/20 10:45:11;;;;;;;12.05;7.80;;;;;;;;;;5012210;28;20243;-73
2022/06/20 10:47:37;;;;;;;13.38;7.90;;;;;;;;;;5028814;28;20029;-72
2022/06/20 10:50:21;;;;;;;12.77;7.82;;;;;;;;;;5029879;28;20026;-72
2022/06/20 10:53:10;;;;;;;10.98;7.10;;;;;;;;;;5029821;28;20025;-72
2022/06/20 10:55:45;;;;;;;11.02;6.88;;;;;;;;;;5011978;28;20021;-72
2022/06/20 10:58:14;;;;;;;11.23;7.75;;;;;;;;;;5011360;28;20040;-72
2022/06/20 11:00:44;;;;;;;9.65;6.55;;;;;;;;;;5029928;28;20022;-72
2022/06/20 11:03:13;;;;;;;13.45;7.78;;;;;;;;;;5011746;28;20447;-72
2022/06/20 11:06:00;;;;;;;11.27;7.05;;;25.10;51.60;;;;;;5029337;28;20026;-71
2022/06/20 11:08:34;;;;;;;10.00;7.28;;;25.10;51.40;;;;;;5028699;28;20029;-72
2022/06/20 11:11:11;;;;;;;11.02;7.07;;;24.60;52.60;;;;;;5029515;28;20033;-73
2022/06/20 11:13:48;;;;;;;10.68;7.30;;;24.90;51.00;;;;;;5011634;28;20062;-72
2022/06/20 11:16:31;;;;;;;8.55;6.82;;;24.50;52.30;;;;;;5031210;23;20037;-69
2022/06/20 11:19:12;;;;;;;9.63;6.20;;;24.30;52.70;;;;;;5028644;28;20029;-70
2022/06/20 11:21:54;;;;;;;8.00;6.18;;;24.30;52.90;;;;;;5029314;28;20192;-67
2022/06/20 11:24:32;;;;;;;17.67;7.80;;;24.40;53.20;;;;;;5029309;28;20030;-69
2022/06/20 11:27:26;;;;;;;13.45;7.20;;;24.20;53.40;;;;;;5028587;28;20029;-69
2022/06/20 11:30:00;;;;;;;9.43;5.80;;;24.00;53.90;;;;;;5029242;28;20135;-67
2022/06/20 11:32:55;;;;;;;8.55;5.75;;;;;;;;;;5029119;28;20052;-71
2022/06/20 11:35:31;;;;;;;10.90;5.78;;;23.30;54.80;;;;;;4998892;28;20093;-69
2022/06/20 11:38:27;;;;;;;9.25;5.75;;;23.00;55.80;;;;;;5028247;28;20065;-67
2022/06/20 11:41:09;;;;;;;8.80;5.50;;;22.80;57.10;;;;;;5029410;28;20021;-69
2022/06/20 11:43:53;;;;;;;8.43;5.32;;;;;;;;;;5029382;28;20041;-69
2022/06/20 11:46:42;;;;;;;9.80;5.40;;;22.10;58.70;;;;;;5029346;28;20030;-69
2022/06/20 11:49:27;;;;;;;6.55;5.28;;;;;;;;;;4991387;28;20068;-69
2022/06/20 11:51:53;;;;;;;6.95;5.75;;;;;;;;;;5028140;28;20029;-68
2022/06/20 11:54:42;;;;;;;9.02;5.97;;;;;;;;;;5029259;28;20052;-70
2022/06/20 11:57:17;;;;;;;7.22;5.28;;;;;;;;;;5028191;28;20108;-70
2022/06/20 11:59:46;;;;;;;6.15;5.25;;;21.50;60.50;;;;;;5011247;28;20063;-71
2022/06/20 12:02:21;;;;;;;6.82;6.00;;;21.10;62.30;;;;;;5028808;28;20022;-70
2022/06/20 12:04:58;;;;;;;10.95;6.75;;;21.10;63.30;;;;;;5028656;28;20030;-70
2022/06/20 12:07:56;;;;;;;7.25;6.15;;;21.30;64.30;;;;;;5027775;28;20044;-70
2022/06/20 12:10:29;;;;;;;8.65;6.32;;;21.10;64.80;;;;;;5029005;28;20055;-70
2022/06/20 12:13:07;;;;;;;8.90;6.38;;;20.60;67.10;;;;;;5028702;28;20049;-70
2022/06/20 12:15:48;;;;;;;7.57;6.20;;;20.30;69.10;;;;;;5010581;28;20025;-70
2022/06/20 12:18:14;;;;;;;7.05;6.35;;;;;;;;;;5027839;28;20021;-68
2022/06/20 12:23:50;;;;;;;10.00;6.97;;;19.40;78.60;;;;;;5029014;28;20188;-70
2022/06/20 12:26:22;;;;;;;6.90;5.72;;;19.20;78.70;;;;;;5028935;28;20216;-70
2022/06/20 12:28:50;;;;;;;6.50;4.78;;;19.10;77.00;;;;;;5010418;28;20022;-70
2022/06/20 12:31:18;;;;;;;6.05;5.35;;;19.00;75.50;;;;;;5026806;28;20028;-70
2022/06/20 12:33:53;;;;;;;6.75;4.68;;;19.20;75.90;;;;;;5028294;28;20025;-68
2022/06/20 12:36:37;;;;;;;5.63;4.22;;;19.40;74.50;;;;;;5028222;28;20021;-68
2022/06/20 12:39:31;;;;;;;7.38;4.70;;;19.50;73.60;;;;;;5028242;28;20502;-70
2022/06/20 12:42:17;;;;;;;5.55;4.47;;;19.60;72.50;;;;;;5021819;28;20038;-69
2022/06/20 12:44:45;;;;;;;9.30;4.63;;;19.70;72.20;;;;;;5031685;28;20030;-71
2022/06/20 12:47:35;;;;;;;5.43;4.07;;;19.40;75.10;;;;;;5030713;28;20487;-70
2022/06/20 12:50:04;;;;;;;5.63;4.75;;;19.10;74.40;;;;;;5031617;28;20018;-71
2022/06/20 12:52:33;;;;;;;6.88;5.10;;;;;;;;;;5031467;28;20094;-69
2022/06/20 12:55:06;;;;;;;5.45;4.95;;;18.50;76.90;;;;;;5031441;28;20101;-69
2022/06/20 12:57:54;;;;;;;5.10;4.60;;;18.40;77.50;;;;;;5030586;28;20017;-71
2022/06/20 13:00:28;;;;;;;6.05;5.40;;;18.40;80.20;;;;;;5031490;28;20040;-69
2022/06/20 13:03:15;;;;;;;9.35;5.53;;;18.30;82.00;;;;;;5031623;28;20063;-70
2022/06/20 13:05:47;;;;;;;5.53;4.93;;;18.30;83.20;;;;;;5031860;28;20026;-69
2022/06/20 13:08:12;;;;;;;;;;;;;;;;;;5013389;28;20032;-69
2022/06/20 13:10:51;;;;;;;5.82;5.20;;;;;;;;;;5031593;28;19905;-70
2022/06/20 13:13:24;;;;;;;6.38;4.53;;;;;;;;;;5031455;28;20448;-69
2022/06/20 13:16:09;;;;;;;6.68;5.43;;;;;;;;;;5031267;28;20045;-70
2022/06/20 13:18:42;;;;;;;8.43;6.32;;;;;;;;;;5030701;28;20032;-69
2022/06/20 13:21:46;;;;;;;5.55;5.05;;;17.90;85.90;;;;;;5031606;28;20025;-68
2022/06/20 13:24:18;;;;;;;8.32;5.90;;;17.40;84.10;;;;;;5031521;28;20104;-69
2022/06/20 13:27:13;;;;;;;6.53;5.55;;;17.10;87.00;;;;;;5031034;28;20049;-69
2022/06/20 13:30:11;;;;;;;6.78;5.82;;;17.10;87.20;;;;;;5030853;28;20075;-70
2022/06/20 13:32:52;;;;;;;6.40;5.80;;;17.20;87.70;;;;;;5031122;28;20458;-70
2022/06/20 13:35:51;;;;;;;5.70;5.20;;;17.00;87.00;;;;;;5030889;28;20028;-71
2022/06/20 13:38:24;;;;;;;7.40;5.80;;;17.00;85.80;;;;;;4997267;28;20402;-70
2022/06/20 13:41:06;;;;;;;9.43;4.57;;;17.00;87.40;;;;;;5028821;28;20078;-68
2022/06/20 13:43:40;;;;;;;4.93;4.53;;;16.90;84.40;;;;;;5030901;28;20021;-69
2022/06/20 13:46:12;;;;;;;6.07;5.47;;;16.70;84.80;;;;;;5030617;28;20050;-69
2022/06/20 13:48:45;;;;;;;5.85;4.53;;;16.70;85.90;;;;;;5030079;28;20064;-69
2022/06/20 13:51:34;;;;;;;5.38;4.32;;;16.50;84.40;;;;;;5030851;28;20108;-70